createdAt,value
2018-07-05T00:00:03.190Z,1006.77
2018-07-05T00:00:29.327Z,1006.77
2018-07-05T00:00:55.473Z,1006.74
2018-07-05T00:01:21.614Z,1006.76
2018-07-05T00:01:47.764Z,1006.77
2018-07-05T00:02:13.936Z,1006.75
2018-07-05T00:02:40.076Z,1006.73
2018-07-05T00:03:06.236Z,1006.76
2018-07-05T00:03:32.378Z,1006.76
2018-07-05T00:03:58.514Z,1006.73
2018-07-05T00:04:24.657Z,1006.74
2018-07-05T00:04:50.793Z,1006.76
2018-07-05T00:05:16.960Z,1006.73
2018-07-05T00:05:43.075Z,1006.73
2018-07-05T00:06:09.235Z,1006.71
2018-07-05T00:06:35.381Z,1006.71
2018-07-05T00:07:01.517Z,1006.69
2018-07-05T00:07:27.658Z,1006.71
2018-07-05T00:07:53.794Z,1006.71
2018-07-05T00:08:19.928Z,1006.68
2018-07-05T00:08:46.072Z,1006.68
2018-07-05T00:09:12.210Z,1006.67
2018-07-05T00:09:38.348Z,1006.67
2018-07-05T00:10:04.486Z,1006.69
2018-07-05T00:10:30.630Z,1006.69
2018-07-05T00:10:56.774Z,1006.68
2018-07-05T00:11:52.741Z,1006.71
2018-07-05T00:12:18.877Z,1006.69
2018-07-05T00:12:45.014Z,1006.73
2018-07-05T00:13:11.158Z,1006.66
2018-07-05T00:13:37.318Z,1006.67
2018-07-05T00:14:03.458Z,1006.71
2018-07-05T00:14:29.589Z,1006.71
2018-07-05T00:14:55.730Z,1006.69
2018-07-05T00:15:21.873Z,1006.69
2018-07-05T00:15:48.016Z,1006.73
2018-07-05T00:16:14.152Z,1006.71
2018-07-05T00:16:40.296Z,1006.67
2018-07-05T00:17:06.436Z,1006.69
2018-07-05T00:17:32.581Z,1006.69
2018-07-05T00:17:58.712Z,1006.68
2018-07-05T00:18:24.841Z,1006.72
2018-07-05T00:18:50.986Z,1006.69
2018-07-05T00:19:17.123Z,1006.72
2018-07-05T00:19:43.263Z,1006.67
2018-07-05T00:20:09.405Z,1006.69
2018-07-05T00:20:35.563Z,1006.69
2018-07-05T00:21:01.703Z,1006.66
2018-07-05T00:21:27.836Z,1006.66
2018-07-05T00:21:53.982Z,1006.7
2018-07-05T00:22:20.113Z,1006.7
2018-07-05T00:22:46.255Z,1006.76
2018-07-05T00:23:12.390Z,1006.76
2018-07-05T00:23:38.554Z,1006.75
2018-07-05T00:24:04.690Z,1006.77
2018-07-05T00:24:30.827Z,1006.79
2018-07-05T00:24:56.974Z,1006.79
2018-07-05T00:25:23.113Z,1006.81
2018-07-05T00:25:49.247Z,1006.77
2018-07-05T00:26:15.389Z,1006.77
2018-07-05T00:26:41.524Z,1006.76
2018-07-05T00:27:07.662Z,1006.74
2018-07-05T00:27:33.802Z,1006.74
2018-07-05T00:27:59.941Z,1006.74
2018-07-05T00:28:26.075Z,1006.77
2018-07-05T00:28:52.212Z,1006.74
2018-07-05T00:29:18.361Z,1006.75
2018-07-05T00:29:44.497Z,1006.76
2018-07-05T00:30:10.663Z,1006.75
2018-07-05T00:30:36.822Z,1006.73
2018-07-05T00:31:02.987Z,1006.73
2018-07-05T00:31:29.125Z,1006.76
2018-07-05T00:31:55.266Z,1006.77
2018-07-05T00:32:21.403Z,1006.76
2018-07-05T00:32:47.541Z,1006.78
2018-07-05T00:33:13.707Z,1006.76
2018-07-05T00:33:39.843Z,1006.78
2018-07-05T00:34:05.977Z,1006.77
2018-07-05T00:34:32.145Z,1006.77
2018-07-05T00:34:58.286Z,1006.78
2018-07-05T00:35:24.424Z,1006.78
2018-07-05T00:35:50.567Z,1006.76
2018-07-05T00:36:16.699Z,1006.79
2018-07-05T00:36:42.862Z,1006.76
2018-07-05T00:37:09.002Z,1006.77
2018-07-05T00:37:35.147Z,1006.79
2018-07-05T00:38:01.287Z,1006.79
2018-07-05T00:38:27.423Z,1006.77
2018-07-05T00:38:53.585Z,1006.78
2018-07-05T00:39:19.747Z,1006.78
2018-07-05T00:39:45.888Z,1006.81
2018-07-05T00:40:12.029Z,1006.81
2018-07-05T00:40:38.191Z,1006.82
2018-07-05T00:41:04.334Z,1006.82
2018-07-05T00:41:30.476Z,1006.8
2018-07-05T00:41:56.618Z,1006.81
2018-07-05T00:42:22.767Z,1006.86
2018-07-05T00:42:48.929Z,1006.85
2018-07-05T00:43:15.088Z,1006.82
2018-07-05T00:43:41.234Z,1006.82
2018-07-05T00:44:07.393Z,1006.85
2018-07-05T00:44:33.531Z,1006.82
2018-07-05T00:44:59.698Z,1006.82
2018-07-05T00:45:25.856Z,1006.85
2018-07-05T00:45:52.003Z,1006.83
2018-07-05T00:46:18.146Z,1006.84
2018-07-05T00:46:44.308Z,1006.8
2018-07-05T00:47:10.452Z,1006.8
2018-07-05T00:47:36.594Z,1006.82
2018-07-05T00:48:02.788Z,1006.81
2018-07-05T00:48:28.875Z,1006.79
2018-07-05T00:48:55.013Z,1006.78
2018-07-05T00:49:21.176Z,1006.8
2018-07-05T00:49:47.333Z,1006.83
2018-07-05T00:50:13.482Z,1006.75
2018-07-05T00:50:39.645Z,1006.73
2018-07-05T00:51:05.806Z,1006.76
2018-07-05T00:51:31.984Z,1006.78
2018-07-05T00:51:58.151Z,1006.77
2018-07-05T00:52:24.285Z,1006.76
2018-07-05T00:52:50.427Z,1006.75
2018-07-05T00:53:16.565Z,1006.75
2018-07-05T00:53:42.734Z,1006.77
2018-07-05T00:54:08.873Z,1006.73
2018-07-05T00:54:35.020Z,1006.75
2018-07-05T00:55:01.183Z,1006.71
2018-07-05T00:55:27.323Z,1006.74
2018-07-05T00:55:53.454Z,1006.71
2018-07-05T00:56:19.595Z,1006.73
2018-07-05T00:56:45.735Z,1006.68
2018-07-05T00:57:11.895Z,1006.73
2018-07-05T00:57:38.032Z,1006.73
2018-07-05T00:58:04.176Z,1006.7
2018-07-05T00:58:30.312Z,1006.69
2018-07-05T00:58:56.454Z,1006.68
2018-07-05T00:59:22.595Z,1006.68
2018-07-05T00:59:48.741Z,1006.7
2018-07-05T01:00:14.881Z,1006.69
2018-07-05T01:00:41.021Z,1006.69
2018-07-05T01:01:07.160Z,1006.7
2018-07-05T01:01:33.295Z,1006.72
2018-07-05T01:01:59.431Z,1006.74
2018-07-05T01:02:25.574Z,1006.74
2018-07-05T01:02:51.711Z,1006.7
2018-07-05T01:03:17.871Z,1006.72
2018-07-05T01:03:44.037Z,1006.72
2018-07-05T01:04:10.185Z,1006.77
2018-07-05T01:04:36.320Z,1006.74
2018-07-05T01:05:02.464Z,1006.74
2018-07-05T01:05:28.618Z,1006.74
2018-07-05T01:05:54.755Z,1006.73
2018-07-05T01:06:20.898Z,1006.71
2018-07-05T01:06:47.039Z,1006.73
2018-07-05T01:07:13.212Z,1006.74
2018-07-05T01:07:39.344Z,1006.7
2018-07-05T01:08:05.480Z,1006.72
2018-07-05T01:08:31.621Z,1006.71
2018-07-05T01:08:57.767Z,1006.71
2018-07-05T01:09:23.930Z,1006.66
2018-07-05T01:09:50.067Z,1006.63
2018-07-05T01:10:16.226Z,1006.64
2018-07-05T01:10:42.364Z,1006.6
2018-07-05T01:11:08.528Z,1006.61
2018-07-05T01:11:34.695Z,1006.63
2018-07-05T01:12:00.833Z,1006.6
2018-07-05T01:12:27.004Z,1006.6
2018-07-05T01:12:53.206Z,1006.6
2018-07-05T01:13:19.360Z,1006.59
2018-07-05T01:13:45.511Z,1006.59
2018-07-05T01:14:11.645Z,1006.59
2018-07-05T01:14:37.791Z,1006.58
2018-07-05T01:15:03.960Z,1006.59
2018-07-05T01:15:30.119Z,1006.59
2018-07-05T01:15:56.247Z,1006.62
2018-07-05T01:16:22.395Z,1006.62
2018-07-05T01:16:48.559Z,1006.64
2018-07-05T01:17:14.699Z,1006.64
2018-07-05T01:17:40.862Z,1006.65
2018-07-05T01:18:07.023Z,1006.66
2018-07-05T01:18:33.218Z,1006.65
2018-07-05T01:18:59.370Z,1006.67
2018-07-05T01:19:25.508Z,1006.66
2018-07-05T01:19:51.650Z,1006.64
2018-07-05T01:20:17.813Z,1006.62
2018-07-05T01:20:43.971Z,1006.62
2018-07-05T01:21:10.109Z,1006.62
2018-07-05T01:21:36.251Z,1006.66
2018-07-05T01:22:02.392Z,1006.72
2018-07-05T01:22:28.534Z,1006.68
2018-07-05T01:22:54.670Z,1006.68
2018-07-05T01:23:20.812Z,1006.68
2018-07-05T01:23:46.950Z,1006.67
2018-07-05T01:24:13.087Z,1006.69
2018-07-05T01:24:39.230Z,1006.7
2018-07-05T01:25:05.412Z,1006.69
2018-07-05T01:25:31.568Z,1006.66
2018-07-05T01:25:57.726Z,1006.71
2018-07-05T01:26:23.866Z,1006.72
2018-07-05T01:26:49.997Z,1006.72
2018-07-05T01:27:16.142Z,1006.72
2018-07-05T01:27:42.283Z,1006.7
2018-07-05T01:28:08.444Z,1006.69
2018-07-05T01:28:34.589Z,1006.67
2018-07-05T01:29:00.721Z,1006.67
2018-07-05T01:29:26.859Z,1006.65
2018-07-05T01:29:53.031Z,1006.62
2018-07-05T01:30:19.197Z,1006.63
2018-07-05T01:30:45.330Z,1006.66
2018-07-05T01:31:11.474Z,1006.65
2018-07-05T01:31:37.619Z,1006.6
2018-07-05T01:32:03.752Z,1006.63
2018-07-05T01:32:29.892Z,1006.64
2018-07-05T01:32:56.030Z,1006.63
2018-07-05T01:33:22.196Z,1006.65
2018-07-05T01:33:48.335Z,1006.67
2018-07-05T01:34:14.471Z,1006.67
2018-07-05T01:34:40.612Z,1006.65
2018-07-05T01:35:06.756Z,1006.67
2018-07-05T01:35:32.922Z,1006.65
2018-07-05T01:35:59.062Z,1006.69
2018-07-05T01:36:25.202Z,1006.71
2018-07-05T01:36:51.335Z,1006.71
2018-07-05T01:37:17.481Z,1006.71
2018-07-05T01:37:43.636Z,1006.7
2018-07-05T01:38:09.778Z,1006.68
2018-07-05T01:38:35.910Z,1006.69
2018-07-05T01:39:02.076Z,1006.69
2018-07-05T01:39:28.217Z,1006.67
2018-07-05T01:39:54.354Z,1006.67
2018-07-05T01:40:20.493Z,1006.67
2018-07-05T01:40:46.674Z,1006.71
2018-07-05T01:41:12.839Z,1006.68
2018-07-05T01:41:39.001Z,1006.7
2018-07-05T01:42:05.137Z,1006.7
2018-07-05T01:42:31.280Z,1006.71
2018-07-05T01:42:57.415Z,1006.74
2018-07-05T01:43:23.582Z,1006.72
2018-07-05T01:43:49.716Z,1006.71
2018-07-05T01:44:15.861Z,1006.73
2018-07-05T01:44:41.998Z,1006.7
2018-07-05T01:45:08.133Z,1006.71
2018-07-05T01:45:34.265Z,1006.7
2018-07-05T01:46:00.411Z,1006.72
2018-07-05T01:46:26.572Z,1006.73
2018-07-05T01:46:52.710Z,1006.71
2018-07-05T01:47:18.845Z,1006.71
2018-07-05T01:47:44.989Z,1006.69
2018-07-05T01:48:11.160Z,1006.67
2018-07-05T01:48:37.296Z,1006.7
2018-07-05T01:49:03.440Z,1006.71
2018-07-05T01:49:29.876Z,1006.7
2018-07-05T01:49:55.969Z,1006.73
2018-07-05T01:50:22.113Z,1006.75
2018-07-05T01:50:48.263Z,1006.74
2018-07-05T01:51:14.394Z,1006.75
2018-07-05T01:51:40.537Z,1006.79
2018-07-05T01:52:06.675Z,1006.79
2018-07-05T01:52:32.814Z,1006.76
2018-07-05T01:52:58.954Z,1006.8
2018-07-05T01:53:25.091Z,1006.77
2018-07-05T01:53:51.227Z,1006.79
2018-07-05T01:54:17.368Z,1006.76
2018-07-05T01:54:43.532Z,1006.78
2018-07-05T01:55:09.676Z,1006.78
2018-07-05T01:55:35.840Z,1006.75
2018-07-05T01:56:01.971Z,1006.79
2018-07-05T01:56:28.123Z,1006.78
2018-07-05T01:56:54.266Z,1006.79
2018-07-05T01:57:20.439Z,1006.77
2018-07-05T01:57:46.569Z,1006.81
2018-07-05T01:58:12.715Z,1006.79
2018-07-05T01:58:38.853Z,1006.83
2018-07-05T01:59:05.021Z,1006.81
2018-07-05T01:59:31.162Z,1006.82
2018-07-05T01:59:57.323Z,1006.85
2018-07-05T02:00:23.462Z,1006.86
2018-07-05T02:00:49.619Z,1006.87
2018-07-05T02:01:15.785Z,1006.81
2018-07-05T02:01:41.924Z,1006.84
2018-07-05T02:02:08.058Z,1006.85
2018-07-05T02:02:34.235Z,1006.86
2018-07-05T02:03:00.371Z,1006.87
2018-07-05T02:03:26.512Z,1006.84
2018-07-05T02:03:52.657Z,1006.86
2018-07-05T02:04:18.812Z,1006.83
2018-07-05T02:04:44.973Z,1006.83
2018-07-05T02:05:11.145Z,1006.8
2018-07-05T02:05:37.331Z,1006.77
2018-07-05T02:06:03.467Z,1006.82
2018-07-05T02:06:29.605Z,1006.78
2018-07-05T02:06:55.753Z,1006.8
2018-07-05T02:07:21.917Z,1006.78
2018-07-05T02:07:48.063Z,1006.75
2018-07-05T02:08:14.190Z,1006.77
2018-07-05T02:08:40.333Z,1006.76
2018-07-05T02:09:06.483Z,1006.73
2018-07-05T02:09:32.646Z,1006.8
2018-07-05T02:09:58.788Z,1006.75
2018-07-05T02:10:24.924Z,1006.75
2018-07-05T02:10:51.090Z,1006.76
2018-07-05T02:11:17.227Z,1006.82
2018-07-05T02:11:43.358Z,1006.77
2018-07-05T02:12:09.500Z,1006.78
2018-07-05T02:12:35.657Z,1006.78
2018-07-05T02:13:01.789Z,1006.79
2018-07-05T02:13:27.927Z,1006.77
2018-07-05T02:13:54.062Z,1006.78
2018-07-05T02:14:20.209Z,1006.78
2018-07-05T02:14:46.366Z,1006.79
2018-07-05T02:15:12.507Z,1006.81
2018-07-05T02:15:38.661Z,1006.79
2018-07-05T02:16:04.808Z,1006.82
2018-07-05T02:16:30.987Z,1006.81
2018-07-05T02:16:57.125Z,1006.81
2018-07-05T02:17:23.284Z,1006.82
2018-07-05T02:17:49.420Z,1006.81
2018-07-05T02:18:15.565Z,1006.84
2018-07-05T02:18:41.707Z,1006.83
2018-07-05T02:19:07.891Z,1006.84
2018-07-05T02:19:34.007Z,1006.83
2018-07-05T02:20:00.162Z,1006.83
2018-07-05T02:20:26.312Z,1006.83
2018-07-05T02:20:52.450Z,1006.78
2018-07-05T02:21:18.591Z,1006.83
2018-07-05T02:21:44.728Z,1006.79
2018-07-05T02:22:10.877Z,1006.82
2018-07-05T02:22:37.011Z,1006.8
2018-07-05T02:23:03.186Z,1006.78
2018-07-05T02:23:29.315Z,1006.78
2018-07-05T02:23:55.471Z,1006.77
2018-07-05T02:24:21.611Z,1006.72
2018-07-05T02:24:47.752Z,1006.74
2018-07-05T02:25:13.892Z,1006.77
2018-07-05T02:25:40.064Z,1006.74
2018-07-05T02:26:06.206Z,1006.79
2018-07-05T02:26:32.336Z,1006.72
2018-07-05T02:26:58.473Z,1006.72
2018-07-05T02:27:24.666Z,1006.74
2018-07-05T02:27:50.826Z,1006.77
2018-07-05T02:28:16.969Z,1006.74
2018-07-05T02:28:43.098Z,1006.75
2018-07-05T02:29:09.247Z,1006.77
2018-07-05T02:29:35.392Z,1006.73
2018-07-05T02:30:01.606Z,1006.69
2018-07-05T02:30:27.777Z,1006.74
2018-07-05T02:30:53.956Z,1006.7
2018-07-05T02:31:20.118Z,1006.73
2018-07-05T02:31:46.257Z,1006.72
2018-07-05T02:32:12.395Z,1006.72
2018-07-05T02:32:38.533Z,1006.75
2018-07-05T02:33:04.704Z,1006.73
2018-07-05T02:33:30.861Z,1006.72
2018-07-05T02:33:57.001Z,1006.78
2018-07-05T02:34:23.168Z,1006.75
2018-07-05T02:34:49.332Z,1006.76
2018-07-05T02:35:15.525Z,1006.76
2018-07-05T02:35:41.658Z,1006.73
2018-07-05T02:36:07.805Z,1006.76
2018-07-05T02:36:33.941Z,1006.77
2018-07-05T02:37:00.094Z,1006.73
2018-07-05T02:37:26.242Z,1006.79
2018-07-05T02:37:52.379Z,1006.78
2018-07-05T02:38:18.539Z,1006.77
2018-07-05T02:38:44.679Z,1006.76
2018-07-05T02:39:10.819Z,1006.76
2018-07-05T02:39:36.977Z,1006.76
2018-07-05T02:40:03.210Z,1006.75
2018-07-05T02:40:29.320Z,1006.75
2018-07-05T02:40:55.536Z,1006.74
2018-07-05T02:41:21.674Z,1006.74
2018-07-05T02:41:47.819Z,1006.73
2018-07-05T02:42:13.951Z,1006.76
2018-07-05T02:42:40.099Z,1006.76
2018-07-05T02:43:06.263Z,1006.73
2018-07-05T02:43:32.421Z,1006.7
2018-07-05T02:43:58.558Z,1006.72
2018-07-05T02:44:24.729Z,1006.66
2018-07-05T02:44:50.888Z,1006.71
2018-07-05T02:45:17.079Z,1006.68
2018-07-05T02:45:43.252Z,1006.69
2018-07-05T02:46:09.381Z,1006.69
2018-07-05T02:46:35.521Z,1006.68
2018-07-05T02:47:01.690Z,1006.68
2018-07-05T02:47:27.860Z,1006.68
2018-07-05T02:47:54.025Z,1006.65
2018-07-05T02:48:20.212Z,1006.63
2018-07-05T02:48:46.360Z,1006.64
2018-07-05T02:49:12.564Z,1006.61
2018-07-05T02:49:38.725Z,1006.61
2018-07-05T02:50:04.934Z,1006.62
2018-07-05T02:50:31.072Z,1006.56
2018-07-05T02:50:57.254Z,1006.62
2018-07-05T02:51:23.422Z,1006.6
2018-07-05T02:51:49.565Z,1006.58
2018-07-05T02:52:15.726Z,1006.58
2018-07-05T02:52:41.868Z,1006.54
2018-07-05T02:53:08.040Z,1006.56
2018-07-05T02:53:34.182Z,1006.52
2018-07-05T02:54:00.408Z,1006.52
2018-07-05T02:54:26.529Z,1006.52
2018-07-05T02:54:52.713Z,1006.52
2018-07-05T02:55:18.886Z,1006.5
2018-07-05T02:55:45.042Z,1006.5
2018-07-05T02:56:11.212Z,1006.51
2018-07-05T02:56:37.366Z,1006.48
2018-07-05T02:57:03.527Z,1006.52
2018-07-05T02:57:29.674Z,1006.52
2018-07-05T02:57:55.813Z,1006.49
2018-07-05T02:58:21.984Z,1006.49
2018-07-05T02:58:48.140Z,1006.46
2018-07-05T02:59:14.274Z,1006.48
2018-07-05T02:59:40.441Z,1006.47
2018-07-05T03:00:06.577Z,1006.45
2018-07-05T03:00:32.764Z,1006.49
2018-07-05T03:00:58.901Z,1006.49
2018-07-05T03:01:25.043Z,1006.51
2018-07-05T03:01:51.181Z,1006.5
2018-07-05T03:02:17.383Z,1006.46
2018-07-05T03:02:43.552Z,1006.51
2018-07-05T03:03:09.691Z,1006.47
2018-07-05T03:03:35.863Z,1006.5
2018-07-05T03:04:02.033Z,1006.48
2018-07-05T03:04:28.176Z,1006.47
2018-07-05T03:04:54.346Z,1006.5
2018-07-05T03:05:20.501Z,1006.5
2018-07-05T03:05:46.695Z,1006.46
2018-07-05T03:06:12.885Z,1006.44
2018-07-05T03:06:39.085Z,1006.43
2018-07-05T03:07:05.213Z,1006.43
2018-07-05T03:07:31.354Z,1006.44
2018-07-05T03:07:57.493Z,1006.44
2018-07-05T03:08:23.652Z,1006.4
2018-07-05T03:08:49.814Z,1006.41
2018-07-05T03:09:15.992Z,1006.35
2018-07-05T03:09:42.202Z,1006.36
2018-07-05T03:10:08.539Z,1006.36
2018-07-05T03:10:34.957Z,1006.35
2018-07-05T03:11:01.219Z,1006.36
2018-07-05T03:11:27.624Z,1006.33
2018-07-05T03:11:53.931Z,1006.33
2018-07-05T03:12:20.214Z,1006.3
2018-07-05T03:12:46.593Z,1006.29
2018-07-05T03:13:12.922Z,1006.27
2018-07-05T03:13:39.208Z,1006.27
2018-07-05T03:14:05.605Z,1006.32
2018-07-05T03:14:31.885Z,1006.29
2018-07-05T03:14:58.019Z,1006.29
2018-07-05T03:15:24.218Z,1006.27
2018-07-05T03:15:50.393Z,1006.28
2018-07-05T03:16:16.532Z,1006.28
2018-07-05T03:16:42.673Z,1006.29
2018-07-05T03:17:08.839Z,1006.31
2018-07-05T03:17:35.010Z,1006.31
2018-07-05T03:18:01.211Z,1006.29
2018-07-05T03:18:27.356Z,1006.32
2018-07-05T03:18:53.496Z,1006.32
2018-07-05T03:19:19.655Z,1006.3
2018-07-05T03:19:45.829Z,1006.35
2018-07-05T03:20:11.981Z,1006.31
2018-07-05T03:20:38.121Z,1006.34
2018-07-05T03:21:04.322Z,1006.34
2018-07-05T03:21:30.447Z,1006.33
2018-07-05T03:21:56.595Z,1006.35
2018-07-05T03:22:22.746Z,1006.34
2018-07-05T03:22:48.909Z,1006.37
2018-07-05T03:23:15.101Z,1006.39
2018-07-05T03:23:41.273Z,1006.38
2018-07-05T03:24:07.478Z,1006.36
2018-07-05T03:24:33.616Z,1006.4
2018-07-05T03:24:59.754Z,1006.38
2018-07-05T03:25:25.903Z,1006.41
2018-07-05T03:25:52.041Z,1006.28
2018-07-05T03:26:18.171Z,1006.32
2018-07-05T03:26:44.312Z,1006.38
2018-07-05T03:27:10.449Z,1006.37
2018-07-05T03:27:36.592Z,1006.4
2018-07-05T03:28:02.775Z,1006.38
2018-07-05T03:28:28.908Z,1006.37
2018-07-05T03:28:55.051Z,1006.38
2018-07-05T03:29:21.187Z,1006.34
2018-07-05T03:29:47.323Z,1006.35
2018-07-05T03:30:13.483Z,1006.42
2018-07-05T03:30:39.667Z,1006.43
2018-07-05T03:31:05.866Z,1006.36
2018-07-05T03:31:32.028Z,1006.43
2018-07-05T03:31:58.170Z,1006.41
2018-07-05T03:32:24.306Z,1006.42
2018-07-05T03:32:50.448Z,1006.43
2018-07-05T03:33:16.584Z,1006.45
2018-07-05T03:33:42.723Z,1006.44
2018-07-05T03:34:08.861Z,1006.48
2018-07-05T03:34:35.023Z,1006.46
2018-07-05T03:35:01.161Z,1006.51
2018-07-05T03:35:27.297Z,1006.49
2018-07-05T03:35:53.445Z,1006.49
2018-07-05T03:36:19.599Z,1006.46
2018-07-05T03:36:45.741Z,1006.48
2018-07-05T03:37:11.892Z,1006.48
2018-07-05T03:37:38.026Z,1006.5
2018-07-05T03:38:04.157Z,1006.49
2018-07-05T03:38:30.296Z,1006.49
2018-07-05T03:38:56.439Z,1006.49
2018-07-05T03:39:22.574Z,1006.51
2018-07-05T03:39:48.719Z,1006.5
2018-07-05T03:40:14.878Z,1006.51
2018-07-05T03:40:41.015Z,1006.48
2018-07-05T03:41:07.177Z,1006.51
2018-07-05T03:41:33.313Z,1006.49
2018-07-05T03:41:59.450Z,1006.51
2018-07-05T03:42:25.615Z,1006.5
2018-07-05T03:42:51.751Z,1006.51
2018-07-05T03:43:17.885Z,1006.54
2018-07-05T03:43:44.028Z,1006.54
2018-07-05T03:44:10.172Z,1006.54
2018-07-05T03:44:36.312Z,1006.54
2018-07-05T03:45:02.450Z,1006.53
2018-07-05T03:45:28.587Z,1006.53
2018-07-05T03:45:54.729Z,1006.54
2018-07-05T03:46:20.868Z,1006.54
2018-07-05T03:46:47.026Z,1006.58
2018-07-05T03:47:13.161Z,1006.59
2018-07-05T03:47:39.305Z,1006.6
2018-07-05T03:48:05.447Z,1006.6
2018-07-05T03:48:31.583Z,1006.59
2018-07-05T03:48:57.741Z,1006.6
2018-07-05T03:49:23.885Z,1006.57
2018-07-05T03:49:50.030Z,1006.57
2018-07-05T03:50:16.188Z,1006.62
2018-07-05T03:50:42.330Z,1006.58
2018-07-05T03:51:08.470Z,1006.56
2018-07-05T03:51:34.657Z,1006.57
2018-07-05T03:52:00.749Z,1006.6
2018-07-05T03:52:26.907Z,1006.6
2018-07-05T03:52:53.075Z,1006.57
2018-07-05T03:53:19.211Z,1006.6
2018-07-05T03:53:45.349Z,1006.62
2018-07-05T03:54:11.488Z,1006.62
2018-07-05T03:54:37.620Z,1006.62
2018-07-05T03:55:03.754Z,1006.65
2018-07-05T03:55:29.901Z,1006.64
2018-07-05T03:55:56.041Z,1006.63
2018-07-05T03:56:22.184Z,1006.63
2018-07-05T03:56:48.317Z,1006.62
2018-07-05T03:57:14.457Z,1006.65
2018-07-05T03:57:40.588Z,1006.67
2018-07-05T03:58:06.733Z,1006.64
2018-07-05T03:58:32.867Z,1006.64
2018-07-05T03:58:59.027Z,1006.62
2018-07-05T03:59:25.170Z,1006.68
2018-07-05T03:59:51.323Z,1006.7
2018-07-05T04:00:17.463Z,1006.7
2018-07-05T04:00:43.608Z,1006.7
2018-07-05T04:01:09.748Z,1006.69
2018-07-05T04:01:35.892Z,1006.71
2018-07-05T04:02:02.028Z,1006.71
2018-07-05T04:02:28.160Z,1006.75
2018-07-05T04:02:54.334Z,1006.74
2018-07-05T04:03:20.498Z,1006.76
2018-07-05T04:03:46.660Z,1006.78
2018-07-05T04:04:12.797Z,1006.76
2018-07-05T04:04:38.963Z,1006.78
2018-07-05T04:05:05.105Z,1006.78
2018-07-05T04:05:31.267Z,1006.78
2018-07-05T04:05:57.411Z,1006.78
2018-07-05T04:06:23.571Z,1006.78
2018-07-05T04:06:49.708Z,1006.77
2018-07-05T04:07:15.877Z,1006.76
2018-07-05T04:07:42.014Z,1006.76
2018-07-05T04:08:08.155Z,1006.78
2018-07-05T04:08:34.298Z,1006.8
2018-07-05T04:09:00.434Z,1006.79
2018-07-05T04:09:26.609Z,1006.8
2018-07-05T04:09:52.744Z,1006.76
2018-07-05T04:10:18.887Z,1006.76
2018-07-05T04:10:45.030Z,1006.74
2018-07-05T04:11:11.160Z,1006.74
2018-07-05T04:11:37.325Z,1006.71
2018-07-05T04:12:03.471Z,1006.72
2018-07-05T04:12:29.626Z,1006.67
2018-07-05T04:12:55.791Z,1006.65
2018-07-05T04:13:21.933Z,1006.67
2018-07-05T04:13:48.077Z,1006.67
2018-07-05T04:14:14.206Z,1006.66
2018-07-05T04:14:40.349Z,1006.63
2018-07-05T04:15:06.486Z,1006.59
2018-07-05T04:15:32.625Z,1006.61
2018-07-05T04:15:58.764Z,1006.58
2018-07-05T04:16:24.924Z,1006.52
2018-07-05T04:16:51.062Z,1006.56
2018-07-05T04:17:17.224Z,1006.59
2018-07-05T04:17:43.389Z,1006.57
2018-07-05T04:18:09.527Z,1006.57
2018-07-05T04:18:35.680Z,1006.57
2018-07-05T04:19:01.841Z,1006.6
2018-07-05T04:19:27.978Z,1006.6
2018-07-05T04:19:54.107Z,1006.65
2018-07-05T04:20:20.282Z,1006.65
2018-07-05T04:20:46.421Z,1006.66
2018-07-05T04:21:12.562Z,1006.64
2018-07-05T04:21:38.691Z,1006.63
2018-07-05T04:22:04.839Z,1006.67
2018-07-05T04:22:30.992Z,1006.66
2018-07-05T04:22:57.135Z,1006.7
2018-07-05T04:23:23.285Z,1006.69
2018-07-05T04:23:49.416Z,1006.68
2018-07-05T04:24:15.595Z,1006.71
2018-07-05T04:24:41.732Z,1006.69
2018-07-05T04:25:07.891Z,1006.7
2018-07-05T04:25:34.012Z,1006.69
2018-07-05T04:26:00.148Z,1006.69
2018-07-05T04:26:26.293Z,1006.72
2018-07-05T04:26:52.432Z,1006.69
2018-07-05T04:27:18.571Z,1006.68
2018-07-05T04:27:44.710Z,1006.68
2018-07-05T04:28:10.849Z,1006.69
2018-07-05T04:28:36.989Z,1006.66
2018-07-05T04:29:03.131Z,1006.65
2018-07-05T04:29:29.317Z,1006.67
2018-07-05T04:29:55.453Z,1006.63
2018-07-05T04:30:21.601Z,1006.62
2018-07-05T04:30:47.731Z,1006.59
2018-07-05T04:31:13.864Z,1006.62
2018-07-05T04:31:40.009Z,1006.64
2018-07-05T04:32:06.173Z,1006.64
2018-07-05T04:32:32.310Z,1006.59
2018-07-05T04:32:58.455Z,1006.63
2018-07-05T04:33:24.643Z,1006.64
2018-07-05T04:33:50.785Z,1006.62
2018-07-05T04:34:17.035Z,1006.61
2018-07-05T04:34:43.072Z,1006.63
2018-07-05T04:35:09.208Z,1006.66
2018-07-05T04:35:35.370Z,1006.64
2018-07-05T04:36:01.510Z,1006.66
2018-07-05T04:36:27.654Z,1006.62
2018-07-05T04:36:53.788Z,1006.64
2018-07-05T04:37:19.950Z,1006.64
2018-07-05T04:37:46.116Z,1006.68
2018-07-05T04:38:12.251Z,1006.65
2018-07-05T04:38:38.393Z,1006.68
2018-07-05T04:39:04.539Z,1006.62
2018-07-05T04:39:30.685Z,1006.66
2018-07-05T04:39:56.823Z,1006.66
2018-07-05T04:40:22.962Z,1006.62
2018-07-05T04:40:49.104Z,1006.64
2018-07-05T04:41:15.264Z,1006.66
2018-07-05T04:41:41.406Z,1006.65
2018-07-05T04:42:07.548Z,1006.66
2018-07-05T04:42:33.714Z,1006.68
2018-07-05T04:42:59.822Z,1006.69
2018-07-05T04:43:25.956Z,1006.72
2018-07-05T04:43:52.127Z,1006.71
2018-07-05T04:44:18.265Z,1006.71
2018-07-05T04:44:44.400Z,1006.73
2018-07-05T04:45:10.561Z,1006.74
2018-07-05T04:45:36.703Z,1006.79
2018-07-05T04:46:02.840Z,1006.79
2018-07-05T04:46:28.982Z,1006.81
2018-07-05T04:46:55.121Z,1006.76
2018-07-05T04:47:21.261Z,1006.79
2018-07-05T04:47:47.400Z,1006.79
2018-07-05T04:48:13.540Z,1006.78
2018-07-05T04:48:39.682Z,1006.75
2018-07-05T04:49:05.838Z,1006.78
2018-07-05T04:49:31.984Z,1006.75
2018-07-05T04:49:58.135Z,1006.77
2018-07-05T04:50:24.266Z,1006.78
2018-07-05T04:50:50.450Z,1006.72
2018-07-05T04:51:16.592Z,1006.76
2018-07-05T04:51:42.725Z,1006.74
2018-07-05T04:52:08.891Z,1006.74
2018-07-05T04:52:35.054Z,1006.7
2018-07-05T04:53:01.194Z,1006.73
2018-07-05T04:53:27.351Z,1006.7
2018-07-05T04:53:53.495Z,1006.73
2018-07-05T04:54:19.622Z,1006.71
2018-07-05T04:54:45.765Z,1006.7
2018-07-05T04:55:11.906Z,1006.71
2018-07-05T04:55:38.045Z,1006.75
2018-07-05T04:56:04.179Z,1006.75
2018-07-05T04:56:30.350Z,1006.77
2018-07-05T04:56:56.485Z,1006.76
2018-07-05T04:57:22.623Z,1006.76
2018-07-05T04:57:48.761Z,1006.74
2018-07-05T04:58:14.897Z,1006.74
2018-07-05T04:58:41.035Z,1006.75
2018-07-05T04:59:07.171Z,1006.74
2018-07-05T04:59:33.305Z,1006.73
2018-07-05T04:59:59.437Z,1006.78
2018-07-05T05:00:25.606Z,1006.78
2018-07-05T05:00:51.741Z,1006.76
2018-07-05T05:01:17.888Z,1006.8
2018-07-05T05:01:44.020Z,1006.8
2018-07-05T05:02:10.167Z,1006.8
2018-07-05T05:02:36.305Z,1006.77
2018-07-05T05:03:02.445Z,1006.78
2018-07-05T05:03:28.587Z,1006.76
2018-07-05T05:03:54.723Z,1006.75
2018-07-05T05:04:20.859Z,1006.83
2018-07-05T05:04:47.003Z,1006.82
2018-07-05T05:05:13.139Z,1006.8
2018-07-05T05:05:39.285Z,1006.79
2018-07-05T05:06:05.425Z,1006.77
2018-07-05T05:06:31.565Z,1006.75
2018-07-05T05:06:57.708Z,1006.77
2018-07-05T05:07:23.841Z,1006.78
2018-07-05T05:07:49.988Z,1006.74
2018-07-05T05:08:16.121Z,1006.77
2018-07-05T05:08:42.276Z,1006.75
2018-07-05T05:09:08.436Z,1006.79
2018-07-05T05:09:34.601Z,1006.78
2018-07-05T05:10:00.765Z,1006.74
2018-07-05T05:10:26.907Z,1006.74
2018-07-05T05:10:53.050Z,1006.7
2018-07-05T05:11:19.182Z,1006.76
2018-07-05T05:11:45.348Z,1006.73
2018-07-05T05:12:11.475Z,1006.75
2018-07-05T05:12:37.625Z,1006.7
2018-07-05T05:13:03.768Z,1006.69
2018-07-05T05:13:29.910Z,1006.71
2018-07-05T05:13:56.073Z,1006.7
2018-07-05T05:14:22.213Z,1006.65
2018-07-05T05:14:48.373Z,1006.67
2018-07-05T05:15:14.537Z,1006.68
2018-07-05T05:15:40.682Z,1006.71
2018-07-05T05:16:06.846Z,1006.72
2018-07-05T05:16:33.016Z,1006.72
2018-07-05T05:16:59.188Z,1006.73
2018-07-05T05:17:25.330Z,1006.76